sensor_id;sensor_type;location;lat;lon;timestamp;temperature;humidity
65034;DHT22;51601;51.356;12.458;2023-10-31T00:02:09;12.90;99.90
65034;DHT22;51601;51.356;12.458;2023-10-31T00:06:29;12.90;99.90
65034;DHT22;51601;51.356;12.458;2023-10-31T00:10:47;12.80;99.90
65034;DHT22;51601;51.356;12.458;2023-10-31T00:15:05;12.80;99.90
65034;DHT22;51601;51.356;12.458;2023-10-31T00:19:24;12.80;99.90
65034;DHT22;51601;51.356;12.458;2023-10-31T00:23:44;12.80;99.90
65034;DHT22;51601;51.356;12.458;2023-10-31T00:28:02;12.70;99.90
65034;DHT22;51601;51.356;12.458;2023-10-31T00:32:20;12.70;99.90
65034;DHT22;51601;51.356;12.458;2023-10-31T00:36:40;12.70;99.90
65034;DHT22;51601;51.356;12.458;2023-10-31T00:40:56;12.70;99.90
65034;DHT22;51601;51.356;12.458;2023-10-31T00:45:14;12.70;99.90
65034;DHT22;51601;51.356;12.458;2023-10-31T00:49:32;12.70;99.90
65034;DHT22;51601;51.356;12.458;2023-10-31T00:53:52;12.70;99.90
65034;DHT22;51601;51.356;12.458;2023-10-31T00:58:12;12.70;99.90
65034;DHT22;51601;51.356;12.458;2023-10-31T01:02:30;12.70;99.90
65034;DHT22;51601;51.356;12.458;2023-10-31T01:06:48;12.70;99.90
65034;DHT22;51601;51.356;12.458;2023-10-31T01:11:07;12.70;99.90
65034;DHT22;51601;51.356;12.458;2023-10-31T01:15:24;12.70;99.90
65034;DHT22;51601;51.356;12.458;2023-10-31T01:19:42;12.70;99.90
65034;DHT22;51601;51.356;12.458;2023-10-31T01:24:00;12.70;99.90
65034;DHT22;51601;51.356;12.458;2023-10-31T01:28:19;12.70;99.90
65034;DHT22;51601;51.356;12.458;2023-10-31T01:32:36;12.70;99.90
65034;DHT22;51601;51.356;12.458;2023-10-31T01:36:54;12.70;99.90
65034;DHT22;51601;51.356;12.458;2023-10-31T01:41:12;12.70;99.90
65034;DHT22;51601;51.356;12.458;2023-10-31T01:45:32;12.60;99.90
65034;DHT22;51601;51.356;12.458;2023-10-31T01:49:48;12.70;99.90
65034;DHT22;51601;51.356;12.458;2023-10-31T01:54:07;12.60;99.90
65034;DHT22;51601;51.356;12.458;2023-10-31T01:58:30;12.70;99.90
65034;DHT22;51601;51.356;12.458;2023-10-31T02:02:52;12.60;99.90
65034;DHT22;51601;51.356;12.458;2023-10-31T02:07:10;12.60;99.90
65034;DHT22;51601;51.356;12.458;2023-10-31T02:11:28;12.60;99.90
65034;DHT22;51601;51.356;12.458;2023-10-31T02:15:46;12.60;99.90
65034;DHT22;51601;51.356;12.458;2023-10-31T02:20:07;12.60;99.90
65034;DHT22;51601;51.356;12.458;2023-10-31T02:24:26;12.60;99.90
65034;DHT22;51601;51.356;12.458;2023-10-31T02:28:43;12.70;99.90
65034;DHT22;51601;51.356;12.458;2023-10-31T02:33:01;12.70;99.90
65034;DHT22;51601;51.356;12.458;2023-10-31T02:37:19;12.60;99.90
65034;DHT22;51601;51.356;12.458;2023-10-31T02:41:38;12.70;99.90
65034;DHT22;51601;51.356;12.458;2023-10-31T02:45:55;12.70;99.90
65034;DHT22;51601;51.356;12.458;2023-10-31T02:50:13;12.70;99.90
65034;DHT22;51601;51.356;12.458;2023-10-31T02:54:31;12.70;99.90
65034;DHT22;51601;51.356;12.458;2023-10-31T02:58:51;12.70;99.90
65034;DHT22;51601;51.356;12.458;2023-10-31T03:03:07;12.70;99.90
65034;DHT22;51601;51.356;12.458;2023-10-31T03:07:26;12.70;99.90
65034;DHT22;51601;51.356;12.458;2023-10-31T03:11:44;12.70;99.90
65034;DHT22;51601;51.356;12.458;2023-10-31T03:16:03;12.70;99.90
65034;DHT22;51601;51.356;12.458;2023-10-31T03:20:23;12.70;99.90
65034;DHT22;51601;51.356;12.458;2023-10-31T03:24:41;12.70;99.90
65034;DHT22;51601;51.356;12.458;2023-10-31T03:28:59;12.70;99.90
65034;DHT22;51601;51.356;12.458;2023-10-31T03:33:18;12.60;99.90
65034;DHT22;51601;51.356;12.458;2023-10-31T03:37:36;12.60;99.90
65034;DHT22;51601;51.356;12.458;2023-10-31T03:41:59;12.60;99.90
65034;DHT22;51601;51.356;12.458;2023-10-31T03:46:17;12.60;99.90
65034;DHT22;51601;51.356;12.458;2023-10-31T03:50:37;12.60;99.90
65034;DHT22;51601;51.356;12.458;2023-10-31T03:54:53;12.60;99.90
65034;DHT22;51601;51.356;12.458;2023-10-31T03:59:14;12.60;99.90
65034;DHT22;51601;51.356;12.458;2023-10-31T04:03:32;12.60;99.90
65034;DHT22;51601;51.356;12.458;2023-10-31T04:07:52;12.60;99.90
65034;DHT22;51601;51.356;12.458;2023-10-31T04:12:12;12.60;99.90
65034;DHT22;51601;51.356;12.458;2023-10-31T04:16:30;12.60;99.90
65034;DHT22;51601;51.356;12.458;2023-10-31T04:20:51;12.60;99.90
65034;DHT22;51601;51.356;12.458;2023-10-31T04:25:12;12.60;99.90
65034;DHT22;51601;51.356;12.458;2023-10-31T04:29:30;12.60;99.90
65034;DHT22;51601;51.356;12.458;2023-10-31T04:33:48;12.60;99.90
65034;DHT22;51601;51.356;12.458;2023-10-31T04:38:06;12.70;99.90
65034;DHT22;51601;51.356;12.458;2023-10-31T04:42:26;12.70;99.90
65034;DHT22;51601;51.356;12.458;2023-10-31T04:46:42;12.70;99.90
65034;DHT22;51601;51.356;12.458;2023-10-31T04:51:00;12.70;99.90
65034;DHT22;51601;51.356;12.458;2023-10-31T04:55:18;12.60;99.90
65034;DHT22;51601;51.356;12.458;2023-10-31T04:59:38;12.60;99.90
65034;DHT22;51601;51.356;12.458;2023-10-31T05:03:54;12.60;99.90
65034;DHT22;51601;51.356;12.458;2023-10-31T05:08:25;12.60;99.90
65034;DHT22;51601;51.356;12.458;2023-10-31T05:12:43;12.60;99.90
65034;DHT22;51601;51.356;12.458;2023-10-31T05:17:03;12.60;99.90
65034;DHT22;51601;51.356;12.458;2023-10-31T05:21:22;12.60;99.90
65034;DHT22;51601;51.356;12.458;2023-10-31T05:25:40;12.70;99.90
65034;DHT22;51601;51.356;12.458;2023-10-31T05:29:58;12.70;99.90
65034;DHT22;51601;51.356;12.458;2023-10-31T05:34:18;12.70;99.90
65034;DHT22;51601;51.356;12.458;2023-10-31T05:38:34;12.70;99.90
65034;DHT22;51601;51.356;12.458;2023-10-31T05:42:52;12.70;99.90
65034;DHT22;51601;51.356;12.458;2023-10-31T05:47:10;12.70;99.90
65034;DHT22;51601;51.356;12.458;2023-10-31T05:51:31;12.70;99.90
65034;DHT22;51601;51.356;12.458;2023-10-31T05:55:50;12.70;99.90
65034;DHT22;51601;51.356;12.458;2023-10-31T06:00:08;12.80;99.90
65034;DHT22;51601;51.356;12.458;2023-10-31T06:04:29;12.70;99.90
65034;DHT22;51601;51.356;12.458;2023-10-31T06:08:48;12.70;99.90
65034;DHT22;51601;51.356;12.458;2023-10-31T06:13:05;12.70;99.90
65034;DHT22;51601;51.356;12.458;2023-10-31T06:17:23;12.70;99.90
65034;DHT22;51601;51.356;12.458;2023-10-31T06:21:41;12.70;99.90
65034;DHT22;51601;51.356;12.458;2023-10-31T06:26:00;12.70;99.90
65034;DHT22;51601;51.356;12.458;2023-10-31T06:30:17;12.70;99.90
65034;DHT22;51601;51.356;12.458;2023-10-31T06:34:44;12.70;99.90
65034;DHT22;51601;51.356;12.458;2023-10-31T06:39:03;12.60;99.90
65034;DHT22;51601;51.356;12.458;2023-10-31T06:43:22;12.60;99.90
65034;DHT22;51601;51.356;12.458;2023-10-31T06:47:39;12.60;99.90
65034;DHT22;51601;51.356;12.458;2023-10-31T06:51:57;12.50;99.90
65034;DHT22;51601;51.356;12.458;2023-10-31T06:56:15;12.50;99.90
65034;DHT22;51601;51.356;12.458;2023-10-31T07:00:34;12.40;99.90
65034;DHT22;51601;51.356;12.458;2023-10-31T07:04:51;12.40;99.90
65034;DHT22;51601;51.356;12.458;2023-10-31T07:09:09;12.40;99.90
65034;DHT22;51601;51.356;12.458;2023-10-31T07:13:27;12.40;99.90
65034;DHT22;51601;51.356;12.458;2023-10-31T07:17:46;12.50;99.90
65034;DHT22;51601;51.356;12.458;2023-10-31T07:22:03;12.50;99.90
65034;DHT22;51601;51.356;12.458;2023-10-31T07:26:21;12.50;99.90
65034;DHT22;51601;51.356;12.458;2023-10-31T07:30:39;12.60;99.90
65034;DHT22;51601;51.356;12.458;2023-10-31T07:34:58;12.60;99.90
65034;DHT22;51601;51.356;12.458;2023-10-31T07:39:15;12.80;99.90
65034;DHT22;51601;51.356;12.458;2023-10-31T07:43:33;13.00;99.90
65034;DHT22;51601;51.356;12.458;2023-10-31T07:47:54;13.50;99.90
65034;DHT22;51601;51.356;12.458;2023-10-31T07:52:14;13.90;99.90
65034;DHT22;51601;51.356;12.458;2023-10-31T07:56:30;14.30;99.90
65034;DHT22;51601;51.356;12.458;2023-10-31T08:00:52;14.40;97.60
65034;DHT22;51601;51.356;12.458;2023-10-31T08:05:10;14.50;96.00
65034;DHT22;51601;51.356;12.458;2023-10-31T08:09:29;14.50;94.30
65034;DHT22;51601;51.356;12.458;2023-10-31T08:13:49;14.60;92.50
65034;DHT22;51601;51.356;12.458;2023-10-31T08:18:07;14.50;91.70
65034;DHT22;51601;51.356;12.458;2023-10-31T08:22:25;14.50;91.20
65034;DHT22;51601;51.356;12.458;2023-10-31T08:26:44;14.50;89.90
65034;DHT22;51601;51.356;12.458;2023-10-31T08:31:01;14.50;88.50
65034;DHT22;51601;51.356;12.458;2023-10-31T08:35:19;14.50;88.20
65034;DHT22;51601;51.356;12.458;2023-10-31T08:39:37;14.60;86.00
65034;DHT22;51601;51.356;12.458;2023-10-31T08:43:57;14.50;84.10
65034;DHT22;51601;51.356;12.458;2023-10-31T08:48:16;14.50;83.70
65034;DHT22;51601;51.356;12.458;2023-10-31T08:52:34;14.70;83.80
65034;DHT22;51601;51.356;12.458;2023-10-31T08:56:53;15.10;85.20
65034;DHT22;51601;51.356;12.458;2023-10-31T09:01:12;15.90;83.70
65034;DHT22;51601;51.356;12.458;2023-10-31T09:05:29;16.50;78.00
65034;DHT22;51601;51.356;12.458;2023-10-31T09:09:47;17.00;74.80
65034;DHT22;51601;51.356;12.458;2023-10-31T09:14:05;17.50;71.40
65034;DHT22;51601;51.356;12.458;2023-10-31T09:18:24;17.60;68.70
65034;DHT22;51601;51.356;12.458;2023-10-31T09:22:41;17.60;67.90
65034;DHT22;51601;51.356;12.458;2023-10-31T09:26:59;17.40;66.90
65034;DHT22;51601;51.356;12.458;2023-10-31T09:31:17;17.00;67.10
65034;DHT22;51601;51.356;12.458;2023-10-31T09:35:36;16.70;67.70
65034;DHT22;51601;51.356;12.458;2023-10-31T09:39:53;16.50;69.30
65034;DHT22;51601;51.356;12.458;2023-10-31T09:44:11;16.50;71.10
65034;DHT22;51601;51.356;12.458;2023-10-31T09:48:30;16.70;70.70
65034;DHT22;51601;51.356;12.458;2023-10-31T09:52:49;17.00;70.50
65034;DHT22;51601;51.356;12.458;2023-10-31T09:57:08;17.20;68.50
65034;DHT22;51601;51.356;12.458;2023-10-31T10:01:27;17.40;67.30
65034;DHT22;51601;51.356;12.458;2023-10-31T10:05:44;17.40;66.60
65034;DHT22;51601;51.356;12.458;2023-10-31T10:10:04;17.30;66.50
65034;DHT22;51601;51.356;12.458;2023-10-31T10:14:24;17.20;66.90
65034;DHT22;51601;51.356;12.458;2023-10-31T10:18:42;17.10;65.90
65034;DHT22;51601;51.356;12.458;2023-10-31T10:23:03;17.10;65.90
65034;DHT22;51601;51.356;12.458;2023-10-31T10:27:22;17.10;65.20
65034;DHT22;51601;51.356;12.458;2023-10-31T10:31:39;17.00;65.00
65034;DHT22;51601;51.356;12.458;2023-10-31T10:35:58;16.80;64.60
65034;DHT22;51601;51.356;12.458;2023-10-31T10:40:16;16.40;64.90
65034;DHT22;51601;51.356;12.458;2023-10-31T10:44:35;16.10;66.00
65034;DHT22;51601;51.356;12.458;2023-10-31T10:48:55;15.90;66.90
65034;DHT22;51601;51.356;12.458;2023-10-31T10:53:22;15.80;67.50
65034;DHT22;51601;51.356;12.458;2023-10-31T10:57:48;15.60;67.90
65034;DHT22;51601;51.356;12.458;2023-10-31T11:02:12;15.60;68.60
65034;DHT22;51601;51.356;12.458;2023-10-31T11:06:32;15.70;69.00
65034;DHT22;51601;51.356;12.458;2023-10-31T11:10:53;15.90;68.80
65034;DHT22;51601;51.356;12.458;2023-10-31T11:15:15;16.10;68.00
65034;DHT22;51601;51.356;12.458;2023-10-31T11:19:36;16.10;67.50
65034;DHT22;51601;51.356;12.458;2023-10-31T11:23:59;16.10;67.10
65034;DHT22;51601;51.356;12.458;2023-10-31T11:28:17;16.00;67.00
65034;DHT22;51601;51.356;12.458;2023-10-31T11:32:35;15.90;68.10
65034;DHT22;51601;51.356;12.458;2023-10-31T11:37:23;15.80;68.90
65034;DHT22;51601;51.356;12.458;2023-10-31T11:41:48;15.70;68.80
65034;DHT22;51601;51.356;12.458;2023-10-31T11:46:06;15.70;68.90
65034;DHT22;51601;51.356;12.458;2023-10-31T11:50:37;15.60;69.10
65034;DHT22;51601;51.356;12.458;2023-10-31T11:54:56;15.50;69.30
65034;DHT22;51601;51.356;12.458;2023-10-31T11:59:15;15.40;69.50
65034;DHT22;51601;51.356;12.458;2023-10-31T12:03:37;15.30;69.60
65034;DHT22;51601;51.356;12.458;2023-10-31T12:07:55;15.20;70.40
65034;DHT22;51601;51.356;12.458;2023-10-31T12:12:14;15.20;70.30
65034;DHT22;51601;51.356;12.458;2023-10-31T12:16:34;15.10;70.90
65034;DHT22;51601;51.356;12.458;2023-10-31T12:20:52;14.80;71.80
65034;DHT22;51601;51.356;12.458;2023-10-31T12:25:10;14.60;72.40
65034;DHT22;51601;51.356;12.458;2023-10-31T12:29:29;14.60;73.20
65034;DHT22;51601;51.356;12.458;2023-10-31T12:33:46;14.50;73.70
65034;DHT22;51601;51.356;12.458;2023-10-31T12:38:04;14.50;73.90
65034;DHT22;51601;51.356;12.458;2023-10-31T12:42:22;14.50;73.90
65034;DHT22;51601;51.356;12.458;2023-10-31T12:46:48;14.50;72.90
65034;DHT22;51601;51.356;12.458;2023-10-31T12:51:07;14.50;73.20
65034;DHT22;51601;51.356;12.458;2023-10-31T12:55:27;14.50;73.20
65034;DHT22;51601;51.356;12.458;2023-10-31T12:59:43;14.60;73.00
65034;DHT22;51601;51.356;12.458;2023-10-31T13:04:05;14.60;73.00
65034;DHT22;51601;51.356;12.458;2023-10-31T13:08:23;14.60;72.60
65034;DHT22;51601;51.356;12.458;2023-10-31T13:12:43;14.60;72.30
65034;DHT22;51601;51.356;12.458;2023-10-31T13:17:02;14.60;72.20
65034;DHT22;51601;51.356;12.458;2023-10-31T13:21:21;14.60;72.10
65034;DHT22;51601;51.356;12.458;2023-10-31T13:25:38;14.50;72.40
65034;DHT22;51601;51.356;12.458;2023-10-31T13:29:56;14.40;73.20
65034;DHT22;51601;51.356;12.458;2023-10-31T13:34:14;14.40;74.10
65034;DHT22;51601;51.356;12.458;2023-10-31T13:38:34;14.30;74.60
65034;DHT22;51601;51.356;12.458;2023-10-31T13:42:53;14.30;75.10
65034;DHT22;51601;51.356;12.458;2023-10-31T13:47:11;14.20;75.50
65034;DHT22;51601;51.356;12.458;2023-10-31T13:51:29;14.20;75.70
65034;DHT22;51601;51.356;12.458;2023-10-31T13:55:49;14.10;76.00
65034;DHT22;51601;51.356;12.458;2023-10-31T14:00:07;14.10;76.30
65034;DHT22;51601;51.356;12.458;2023-10-31T14:04:30;14.00;76.60
65034;DHT22;51601;51.356;12.458;2023-10-31T14:08:48;14.00;77.10
65034;DHT22;51601;51.356;12.458;2023-10-31T14:13:07;14.00;77.10
65034;DHT22;51601;51.356;12.458;2023-10-31T14:17:24;14.00;77.00
65034;DHT22;51601;51.356;12.458;2023-10-31T14:21:42;13.90;77.20
65034;DHT22;51601;51.356;12.458;2023-10-31T14:26:00;13.80;77.50
65034;DHT22;51601;51.356;12.458;2023-10-31T14:30:19;13.80;78.20
65034;DHT22;51601;51.356;12.458;2023-10-31T14:34:36;13.80;78.60
65034;DHT22;51601;51.356;12.458;2023-10-31T14:38:54;13.80;79.40
65034;DHT22;51601;51.356;12.458;2023-10-31T14:43:12;13.80;78.90
65034;DHT22;51601;51.356;12.458;2023-10-31T14:47:35;13.80;79.00
65034;DHT22;51601;51.356;12.458;2023-10-31T14:51:52;13.80;79.30
65034;DHT22;51601;51.356;12.458;2023-10-31T14:56:10;13.70;79.70
65034;DHT22;51601;51.356;12.458;2023-10-31T15:00:28;13.70;80.10
65034;DHT22;51601;51.356;12.458;2023-10-31T15:04:50;13.70;80.50
65034;DHT22;51601;51.356;12.458;2023-10-31T15:09:07;13.70;81.00
65034;DHT22;51601;51.356;12.458;2023-10-31T15:13:25;13.60;81.40
65034;DHT22;51601;51.356;12.458;2023-10-31T15:17:43;13.60;81.80
65034;DHT22;51601;51.356;12.458;2023-10-31T15:22:02;13.60;81.90
65034;DHT22;51601;51.356;12.458;2023-10-31T15:26:19;13.60;82.10
65034;DHT22;51601;51.356;12.458;2023-10-31T15:30:40;13.50;82.10
65034;DHT22;51601;51.356;12.458;2023-10-31T15:34:58;13.50;82.10
65034;DHT22;51601;51.356;12.458;2023-10-31T15:39:18;13.50;82.20
65034;DHT22;51601;51.356;12.458;2023-10-31T15:43:34;13.40;82.30
65034;DHT22;51601;51.356;12.458;2023-10-31T15:47:52;13.40;82.30
65034;DHT22;51601;51.356;12.458;2023-10-31T15:52:10;13.40;82.30
65034;DHT22;51601;51.356;12.458;2023-10-31T15:56:30;13.30;82.30
65034;DHT22;51601;51.356;12.458;2023-10-31T16:00:47;13.30;82.40
65034;DHT22;51601;51.356;12.458;2023-10-31T16:05:05;13.30;82.70
65034;DHT22;51601;51.356;12.458;2023-10-31T16:09:22;13.30;83.10
65034;DHT22;51601;51.356;12.458;2023-10-31T16:13:45;13.30;83.70
65034;DHT22;51601;51.356;12.458;2023-10-31T16:18:04;13.20;84.20
65034;DHT22;51601;51.356;12.458;2023-10-31T16:22:57;13.20;84.90
65034;DHT22;51601;51.356;12.458;2023-10-31T16:27:15;13.20;85.60
65034;DHT22;51601;51.356;12.458;2023-10-31T16:31:34;13.10;86.30
65034;DHT22;51601;51.356;12.458;2023-10-31T16:35:54;13.10;87.10
65034;DHT22;51601;51.356;12.458;2023-10-31T16:40:12;13.10;87.60
65034;DHT22;51601;51.356;12.458;2023-10-31T16:44:30;13.00;88.10
65034;DHT22;51601;51.356;12.458;2023-10-31T16:48:49;13.00;88.40
65034;DHT22;51601;51.356;12.458;2023-10-31T16:53:06;13.00;88.70
65034;DHT22;51601;51.356;12.458;2023-10-31T16:57:24;13.00;89.00
65034;DHT22;51601;51.356;12.458;2023-10-31T17:01:42;12.90;89.20
65034;DHT22;51601;51.356;12.458;2023-10-31T17:06:02;12.90;89.30
65034;DHT22;51601;51.356;12.458;2023-10-31T17:10:21;12.90;89.50
65034;DHT22;51601;51.356;12.458;2023-10-31T17:14:40;12.90;89.70
65034;DHT22;51601;51.356;12.458;2023-10-31T17:18:58;12.80;89.80
65034;DHT22;51601;51.356;12.458;2023-10-31T17:23:17;12.90;89.90
65034;DHT22;51601;51.356;12.458;2023-10-31T17:27:34;12.80;90.00
65034;DHT22;51601;51.356;12.458;2023-10-31T17:31:52;12.80;90.10
65034;DHT22;51601;51.356;12.458;2023-10-31T17:36:10;12.70;90.20
65034;DHT22;51601;51.356;12.458;2023-10-31T17:40:29;12.80;90.30
65034;DHT22;51601;51.356;12.458;2023-10-31T17:44:49;12.80;90.40
65034;DHT22;51601;51.356;12.458;2023-10-31T17:49:07;12.70;90.50
65034;DHT22;51601;51.356;12.458;2023-10-31T17:53:25;12.70;90.50
65034;DHT22;51601;51.356;12.458;2023-10-31T17:57:44;12.70;90.60
65034;DHT22;51601;51.356;12.458;2023-10-31T18:02:02;12.70;90.70
65034;DHT22;51601;51.356;12.458;2023-10-31T18:06:19;12.70;90.70
65034;DHT22;51601;51.356;12.458;2023-10-31T18:10:37;12.70;91.00
65034;DHT22;51601;51.356;12.458;2023-10-31T18:14:57;12.70;90.70
65034;DHT22;51601;51.356;12.458;2023-10-31T18:19:13;12.70;90.70
65034;DHT22;51601;51.356;12.458;2023-10-31T18:23:32;12.70;90.70
65034;DHT22;51601;51.356;12.458;2023-10-31T18:27:49;12.60;90.70
65034;DHT22;51601;51.356;12.458;2023-10-31T18:32:09;12.60;90.70
65034;DHT22;51601;51.356;12.458;2023-10-31T18:36:26;12.60;90.60
65034;DHT22;51601;51.356;12.458;2023-10-31T18:40:53;12.60;90.50
65034;DHT22;51601;51.356;12.458;2023-10-31T18:45:11;12.60;90.30
65034;DHT22;51601;51.356;12.458;2023-10-31T18:49:34;12.60;90.20
65034;DHT22;51601;51.356;12.458;2023-10-31T18:53:50;12.60;90.20
65034;DHT22;51601;51.356;12.458;2023-10-31T18:58:08;12.60;90.20
65034;DHT22;51601;51.356;12.458;2023-10-31T19:02:26;12.60;90.30
65034;DHT22;51601;51.356;12.458;2023-10-31T19:06:46;12.60;90.30
65034;DHT22;51601;51.356;12.458;2023-10-31T19:11:03;12.60;90.40
65034;DHT22;51601;51.356;12.458;2023-10-31T19:15:24;12.60;90.50
65034;DHT22;51601;51.356;12.458;2023-10-31T19:19:42;12.60;90.60
65034;DHT22;51601;51.356;12.458;2023-10-31T19:24:01;12.60;90.70
65034;DHT22;51601;51.356;12.458;2023-10-31T19:28:18;12.50;91.10
65034;DHT22;51601;51.356;12.458;2023-10-31T19:32:36;12.50;92.00
65034;DHT22;51601;51.356;12.458;2023-10-31T19:36:54;12.50;92.80
65034;DHT22;51601;51.356;12.458;2023-10-31T19:41:13;12.40;93.60
65034;DHT22;51601;51.356;12.458;2023-10-31T19:45:33;12.40;94.10
65034;DHT22;51601;51.356;12.458;2023-10-31T19:49:51;12.30;94.50
65034;DHT22;51601;51.356;12.458;2023-10-31T19:54:11;12.30;94.80
65034;DHT22;51601;51.356;12.458;2023-10-31T19:58:32;12.20;94.90
65034;DHT22;51601;51.356;12.458;2023-10-31T20:02:51;12.20;95.00
65034;DHT22;51601;51.356;12.458;2023-10-31T20:07:10;12.10;95.00
65034;DHT22;51601;51.356;12.458;2023-10-31T20:11:28;12.00;95.20
65034;DHT22;51601;51.356;12.458;2023-10-31T20:15:47;11.90;95.50
65034;DHT22;51601;51.356;12.458;2023-10-31T20:20:08;11.80;96.00
65034;DHT22;51601;51.356;12.458;2023-10-31T20:24:25;11.70;96.50
65034;DHT22;51601;51.356;12.458;2023-10-31T20:28:43;11.70;96.90
65034;DHT22;51601;51.356;12.458;2023-10-31T20:33:02;11.60;97.60
65034;DHT22;51601;51.356;12.458;2023-10-31T20:37:19;11.60;97.80
65034;DHT22;51601;51.356;12.458;2023-10-31T20:41:37;11.60;98.10
65034;DHT22;51601;51.356;12.458;2023-10-31T20:45:55;11.60;98.30
65034;DHT22;51601;51.356;12.458;2023-10-31T20:50:15;11.60;98.30
65034;DHT22;51601;51.356;12.458;2023-10-31T20:54:34;11.60;98.00
65034;DHT22;51601;51.356;12.458;2023-10-31T20:58:52;11.60;97.70
65034;DHT22;51601;51.356;12.458;2023-10-31T21:03:10;11.60;97.60
65034;DHT22;51601;51.356;12.458;2023-10-31T21:07:30;11.50;97.50
65034;DHT22;51601;51.356;12.458;2023-10-31T21:11:47;11.40;97.40
65034;DHT22;51601;51.356;12.458;2023-10-31T21:16:05;11.30;97.50
65034;DHT22;51601;51.356;12.458;2023-10-31T21:20:23;11.20;97.60
65034;DHT22;51601;51.356;12.458;2023-10-31T21:24:45;11.10;97.60
65034;DHT22;51601;51.356;12.458;2023-10-31T21:29:02;11.00;97.50
65034;DHT22;51601;51.356;12.458;2023-10-31T21:33:20;10.90;97.50
65034;DHT22;51601;51.356;12.458;2023-10-31T21:37:41;10.80;98.00
65034;DHT22;51601;51.356;12.458;2023-10-31T21:42:00;10.70;98.10
65034;DHT22;51601;51.356;12.458;2023-10-31T21:46:17;10.60;98.30
65034;DHT22;51601;51.356;12.458;2023-10-31T21:50:35;10.60;98.80
65034;DHT22;51601;51.356;12.458;2023-10-31T21:54:53;10.50;99.40
65034;DHT22;51601;51.356;12.458;2023-10-31T21:59:13;10.50;99.90
65034;DHT22;51601;51.356;12.458;2023-10-31T22:03:32;10.40;99.90
65034;DHT22;51601;51.356;12.458;2023-10-31T22:07:50;10.50;99.90
65034;DHT22;51601;51.356;12.458;2023-10-31T22:12:08;10.40;99.90
65034;DHT22;51601;51.356;12.458;2023-10-31T22:16:31;10.40;99.90
65034;DHT22;51601;51.356;12.458;2023-10-31T22:20:51;10.40;99.90
65034;DHT22;51601;51.356;12.458;2023-10-31T22:25:09;10.40;99.90
65034;DHT22;51601;51.356;12.458;2023-10-31T22:29:27;10.40;99.90
65034;DHT22;51601;51.356;12.458;2023-10-31T22:33:46;10.30;99.90
65034;DHT22;51601;51.356;12.458;2023-10-31T22:38:03;10.30;99.90
65034;DHT22;51601;51.356;12.458;2023-10-31T22:42:22;10.30;99.90
65034;DHT22;51601;51.356;12.458;2023-10-31T22:46:42;10.30;99.90
65034;DHT22;51601;51.356;12.458;2023-10-31T22:51:02;10.20;99.90
65034;DHT22;51601;51.356;12.458;2023-10-31T22:55:21;10.20;99.90
65034;DHT22;51601;51.356;12.458;2023-10-31T22:59:42;10.20;99.90
65034;DHT22;51601;51.356;12.458;2023-10-31T23:04:00;10.20;99.90
65034;DHT22;51601;51.356;12.458;2023-10-31T23:08:20;10.30;99.90
65034;DHT22;51601;51.356;12.458;2023-10-31T23:12:37;10.30;99.90
65034;DHT22;51601;51.356;12.458;2023-10-31T23:16:55;10.20;99.90
65034;DHT22;51601;51.356;12.458;2023-10-31T23:21:13;10.20;99.90
65034;DHT22;51601;51.356;12.458;2023-10-31T23:25:32;10.20;99.90
65034;DHT22;51601;51.356;12.458;2023-10-31T23:29:49;10.30;99.90
65034;DHT22;51601;51.356;12.458;2023-10-31T23:34:07;10.40;99.90
65034;DHT22;51601;51.356;12.458;2023-10-31T23:38:25;10.50;99.90
65034;DHT22;51601;51.356;12.458;2023-10-31T23:42:44;10.50;99.90
65034;DHT22;51601;51.356;12.458;2023-10-31T23:47:01;10.60;99.90
65034;DHT22;51601;51.356;12.458;2023-10-31T23:51:19;10.70;99.90
65034;DHT22;51601;51.356;12.458;2023-10-31T23:55:40;10.70;99.90
